sensor_id;sensor_type;location;lat;lon;timestamp;P1;P2;P0
23240;PMS7003;11789;53.482;9.862;2024-03-23T00:53:14;5.75;5.75;3.00
23240;PMS7003;11789;53.482;9.862;2024-03-23T00:55:42;6.00;6.00;3.25
23240;PMS7003;11789;53.482;9.862;2024-03-23T00:58:08;9.75;5.00;2.00
23240;PMS7003;11789;53.482;9.862;2024-03-23T01:00:34;13.25;5.75;2.00
23240;PMS7003;11789;53.482;9.862;2024-03-23T01:02:59;7.50;4.25;2.25
23240;PMS7003;11789;53.482;9.862;2024-03-23T01:05:24;7.25;4.50;2.00
23240;PMS7003;11789;53.482;9.862;2024-03-23T01:07:50;4.75;4.00;2.00
23240;PMS7003;11789;53.482;9.862;2024-03-23T01:10:15;8.75;4.50;2.75
23240;PMS7003;11789;53.482;9.862;2024-03-23T01:12:41;6.00;3.00;2.00
23240;PMS7003;11789;53.482;9.862;2024-03-23T01:15:06;7.75;5.50;3.25
23240;PMS7003;11789;53.482;9.862;2024-03-23T01:17:32;11.25;5.25;3.00
23240;PMS7003;11789;53.482;9.862;2024-03-23T01:19:57;7.25;4.00;2.50
23240;PMS7003;11789;53.482;9.862;2024-03-23T01:22:23;6.75;5.00;3.00
23240;PMS7003;11789;53.482;9.862;2024-03-23T01:24:48;12.75;5.00;3.00
23240;PMS7003;11789;53.482;9.862;2024-03-23T01:27:14;7.25;3.50;2.25
23240;PMS7003;11789;53.482;9.862;2024-03-23T01:29:39;5.50;3.00;2.00
23240;PMS7003;11789;53.482;9.862;2024-03-23T01:32:05;6.00;4.00;2.00
23240;PMS7003;11789;53.482;9.862;2024-03-23T01:34:32;8.25;5.75;3.00
23240;PMS7003;11789;53.482;9.862;2024-03-23T01:36:57;5.75;4.00;2.25
23240;PMS7003;11789;53.482;9.862;2024-03-23T01:39:22;7.00;4.25;3.25
23240;PMS7003;11789;53.482;9.862;2024-03-23T01:41:48;5.00;3.00;2.00
23240;PMS7003;11789;53.482;9.862;2024-03-23T01:44:13;5.50;3.75;2.00
23240;PMS7003;11789;53.482;9.862;2024-03-23T01:46:40;12.75;4.00;2.00
23240;PMS7003;11789;53.482;9.862;2024-03-23T01:49:07;8.25;3.75;2.50
23240;PMS7003;11789;53.482;9.862;2024-03-23T01:51:33;7.00;3.75;2.00
23240;PMS7003;11789;53.482;9.862;2024-03-23T01:54:01;6.50;3.75;1.50
23240;PMS7003;11789;53.482;9.862;2024-03-23T01:56:31;8.75;4.50;2.25
23240;PMS7003;11789;53.482;9.862;2024-03-23T01:59:00;7.25;5.00;2.00
23240;PMS7003;11789;53.482;9.862;2024-03-23T02:01:29;7.50;4.25;2.50
23240;PMS7003;11789;53.482;9.862;2024-03-23T02:03:55;3.50;3.50;2.00
23240;PMS7003;11789;53.482;9.862;2024-03-23T02:06:20;6.50;4.00;2.00
23240;PMS7003;11789;53.482;9.862;2024-03-23T02:08:46;5.25;3.25;2.00
23240;PMS7003;11789;53.482;9.862;2024-03-23T02:11:12;5.50;5.25;3.00
23240;PMS7003;11789;53.482;9.862;2024-03-23T02:13:37;4.75;4.25;2.00
23240;PMS7003;11789;53.482;9.862;2024-03-23T02:16:03;10.25;4.00;3.00
23240;PMS7003;11789;53.482;9.862;2024-03-23T02:18:30;7.50;3.00;1.00
23240;PMS7003;11789;53.482;9.862;2024-03-23T02:20:56;4.25;4.25;2.25
23240;PMS7003;11789;53.482;9.862;2024-03-23T02:23:21;8.50;5.00;3.00
23240;PMS7003;11789;53.482;9.862;2024-03-23T02:25:46;8.75;3.75;2.00
23240;PMS7003;11789;53.482;9.862;2024-03-23T02:28:12;9.25;4.75;3.00
23240;PMS7003;11789;53.482;9.862;2024-03-23T02:30:37;5.75;5.75;2.00
23240;PMS7003;11789;53.482;9.862;2024-03-23T02:33:03;5.00;3.75;2.00
23240;PMS7003;11789;53.482;9.862;2024-03-23T02:35:29;5.00;5.00;3.00
23240;PMS7003;11789;53.482;9.862;2024-03-23T02:37:55;7.50;5.00;3.00
23240;PMS7003;11789;53.482;9.862;2024-03-23T02:40:22;10.75;4.75;3.00
23240;PMS7003;11789;53.482;9.862;2024-03-23T02:42:48;7.25;5.75;3.50
23240;PMS7003;11789;53.482;9.862;2024-03-23T02:45:14;7.00;5.00;2.75
23240;PMS7003;11789;53.482;9.862;2024-03-23T02:47:39;3.75;3.50;2.00
23240;PMS7003;11789;53.482;9.862;2024-03-23T02:50:05;5.00;5.00;3.00
23240;PMS7003;11789;53.482;9.862;2024-03-23T02:52:31;8.50;4.00;3.00
23240;PMS7003;11789;53.482;9.862;2024-03-23T02:54:56;9.50;6.00;2.75
23240;PMS7003;11789;53.482;9.862;2024-03-23T02:57:22;5.25;3.75;2.75
23240;PMS7003;11789;53.482;9.862;2024-03-23T02:59:47;6.75;5.00;3.00
23240;PMS7003;11789;53.482;9.862;2024-03-23T03:02:13;9.50;3.50;2.00
23240;PMS7003;11789;53.482;9.862;2024-03-23T03:04:39;9.50;5.00;3.00
23240;PMS7003;11789;53.482;9.862;2024-03-23T03:07:04;6.00;5.00;3.00
23240;PMS7003;11789;53.482;9.862;2024-03-23T03:09:30;10.25;5.75;2.25
23240;PMS7003;11789;53.482;9.862;2024-03-23T03:11:55;8.00;6.25;4.00
23240;PMS7003;11789;53.482;9.862;2024-03-23T03:14:21;11.00;5.50;2.00
23240;PMS7003;11789;53.482;9.862;2024-03-23T03:16:46;8.25;5.00;1.25
23240;PMS7003;11789;53.482;9.862;2024-03-23T03:19:12;7.00;3.50;2.00
23240;PMS7003;11789;53.482;9.862;2024-03-23T03:21:37;6.00;5.25;3.00
23240;PMS7003;11789;53.482;9.862;2024-03-23T03:24:03;9.50;4.00;2.50
23240;PMS7003;11789;53.482;9.862;2024-03-23T03:26:31;10.75;5.00;3.00
23240;PMS7003;11789;53.482;9.862;2024-03-23T03:28:57;6.50;4.00;2.50
23240;PMS7003;11789;53.482;9.862;2024-03-23T03:31:22;12.75;4.50;1.75
23240;PMS7003;11789;53.482;9.862;2024-03-23T03:33:49;5.50;3.75;2.00
23240;PMS7003;11789;53.482;9.862;2024-03-23T03:36:15;10.00;4.75;2.75
23240;PMS7003;11789;53.482;9.862;2024-03-23T03:38:41;7.75;5.75;3.25
23240;PMS7003;11789;53.482;9.862;2024-03-23T03:41:07;6.50;5.50;2.00
23240;PMS7003;11789;53.482;9.862;2024-03-23T03:43:32;7.25;2.75;2.00
23240;PMS7003;11789;53.482;9.862;2024-03-23T03:45:58;12.25;5.25;3.00
23240;PMS7003;11789;53.482;9.862;2024-03-23T03:48:24;3.50;3.50;2.00
23240;PMS7003;11789;53.482;9.862;2024-03-23T03:50:50;4.00;4.00;2.25
23240;PMS7003;11789;53.482;9.862;2024-03-23T03:53:15;7.00;4.00;2.50
23240;PMS7003;11789;53.482;9.862;2024-03-23T03:55:41;11.50;4.50;2.75
23240;PMS7003;11789;53.482;9.862;2024-03-23T03:58:07;10.00;4.50;2.50
23240;PMS7003;11789;53.482;9.862;2024-03-23T04:00:32;5.75;4.50;3.00
23240;PMS7003;11789;53.482;9.862;2024-03-23T04:02:58;3.50;3.50;2.00
23240;PMS7003;11789;53.482;9.862;2024-03-23T04:05:23;12.25;6.00;3.00
23240;PMS7003;11789;53.482;9.862;2024-03-23T04:07:49;10.75;5.00;2.00
23240;PMS7003;11789;53.482;9.862;2024-03-23T04:10:14;4.75;4.75;3.00
23240;PMS7003;11789;53.482;9.862;2024-03-23T04:12:40;11.50;4.00;2.00
23240;PMS7003;11789;53.482;9.862;2024-03-23T04:15:06;6.50;4.00;3.00
23240;PMS7003;11789;53.482;9.862;2024-03-23T04:17:32;6.75;3.00;2.00
23240;PMS7003;11789;53.482;9.862;2024-03-23T04:19:59;3.50;2.50;1.25
23240;PMS7003;11789;53.482;9.862;2024-03-23T04:22:26;6.75;3.75;2.75
23240;PMS7003;11789;53.482;9.862;2024-03-23T04:24:57;9.00;3.25;2.25
23240;PMS7003;11789;53.482;9.862;2024-03-23T04:27:23;10.25;6.00;2.00
23240;PMS7003;11789;53.482;9.862;2024-03-23T04:29:49;7.25;4.00;2.00
23240;PMS7003;11789;53.482;9.862;2024-03-23T04:32:15;10.00;4.00;2.00
23240;PMS7003;11789;53.482;9.862;2024-03-23T04:34:41;10.75;4.50;2.00
23240;PMS7003;11789;53.482;9.862;2024-03-23T04:37:08;7.50;4.75;3.00
23240;PMS7003;11789;53.482;9.862;2024-03-23T04:39:34;4.25;4.25;2.00
23240;PMS7003;11789;53.482;9.862;2024-03-23T04:41:59;10.75;3.75;3.00
23240;PMS7003;11789;53.482;9.862;2024-03-23T04:44:24;11.00;4.50;3.00
23240;PMS7003;11789;53.482;9.862;2024-03-23T04:46:50;5.25;5.00;3.25
23240;PMS7003;11789;53.482;9.862;2024-03-23T04:49:15;7.75;4.75;3.00
23240;PMS7003;11789;53.482;9.862;2024-03-23T04:51:41;11.00;5.00;2.75
23240;PMS7003;11789;53.482;9.862;2024-03-23T04:54:11;8.25;4.25;2.00
23240;PMS7003;11789;53.482;9.862;2024-03-23T04:56:39;5.75;2.75;2.25
23240;PMS7003;11789;53.482;9.862;2024-03-23T04:59:04;11.50;2.25;1.00
23240;PMS7003;11789;53.482;9.862;2024-03-23T05:01:30;7.50;4.00;3.00
23240;PMS7003;11789;53.482;9.862;2024-03-23T05:03:56;5.00;3.25;1.50
23240;PMS7003;11789;53.482;9.862;2024-03-23T05:06:23;5.75;4.00;2.00
23240;PMS7003;11789;53.482;9.862;2024-03-23T05:08:48;5.75;4.00;1.75
23240;PMS7003;11789;53.482;9.862;2024-03-23T05:11:14;8.50;4.25;2.50
23240;PMS7003;11789;53.482;9.862;2024-03-23T05:13:41;7.75;4.50;2.00
23240;PMS7003;11789;53.482;9.862;2024-03-23T05:16:06;7.50;4.75;2.75
23240;PMS7003;11789;53.482;9.862;2024-03-23T05:18:32;9.00;5.25;2.75
23240;PMS7003;11789;53.482;9.862;2024-03-23T05:20:57;11.75;5.00;2.75
23240;PMS7003;11789;53.482;9.862;2024-03-23T05:23:24;8.50;4.25;3.00
23240;PMS7003;11789;53.482;9.862;2024-03-23T05:25:50;6.50;4.50;2.00
23240;PMS7003;11789;53.482;9.862;2024-03-23T05:28:16;8.00;5.00;3.00
23240;PMS7003;11789;53.482;9.862;2024-03-23T05:30:42;5.00;3.75;2.25
23240;PMS7003;11789;53.482;9.862;2024-03-23T05:33:08;8.75;4.75;2.50
23240;PMS7003;11789;53.482;9.862;2024-03-23T05:35:34;5.00;3.50;2.00
23240;PMS7003;11789;53.482;9.862;2024-03-23T05:37:59;5.25;4.25;2.75
23240;PMS7003;11789;53.482;9.862;2024-03-23T05:40:27;4.75;3.00;2.00
23240;PMS7003;11789;53.482;9.862;2024-03-23T05:42:53;5.00;4.75;2.00
23240;PMS7003;11789;53.482;9.862;2024-03-23T05:45:19;10.00;5.50;3.00
23240;PMS7003;11789;53.482;9.862;2024-03-23T05:47:44;5.50;3.75;2.00
23240;PMS7003;11789;53.482;9.862;2024-03-23T05:50:10;4.25;3.00;2.00
23240;PMS7003;11789;53.482;9.862;2024-03-23T05:52:38;4.75;3.75;2.75
23240;PMS7003;11789;53.482;9.862;2024-03-23T05:55:04;6.50;3.25;2.00
23240;PMS7003;11789;53.482;9.862;2024-03-23T05:57:30;10.00;4.00;2.00
23240;PMS7003;11789;53.482;9.862;2024-03-23T05:59:55;6.00;2.50;2.00
23240;PMS7003;11789;53.482;9.862;2024-03-23T06:02:21;8.00;4.75;2.00
23240;PMS7003;11789;53.482;9.862;2024-03-23T06:04:47;5.25;3.75;2.00
23240;PMS7003;11789;53.482;9.862;2024-03-23T06:07:13;6.25;3.25;2.25
23240;PMS7003;11789;53.482;9.862;2024-03-23T06:09:39;3.75;3.75;2.00
23240;PMS7003;11789;53.482;9.862;2024-03-23T06:12:07;9.75;4.25;2.00
23240;PMS7003;11789;53.482;9.862;2024-03-23T06:14:33;8.75;5.75;2.00
23240;PMS7003;11789;53.482;9.862;2024-03-23T06:16:59;7.50;4.00;2.00
23240;PMS7003;11789;53.482;9.862;2024-03-23T06:19:25;10.25;6.00;3.00
23240;PMS7003;11789;53.482;9.862;2024-03-23T06:21:53;7.75;5.25;2.00
23240;PMS7003;11789;53.482;9.862;2024-03-23T06:24:24;8.50;6.00;3.00
23240;PMS7003;11789;53.482;9.862;2024-03-23T06:26:52;5.25;5.00;3.00
23240;PMS7003;11789;53.482;9.862;2024-03-23T06:29:17;5.00;5.00;2.00
23240;PMS7003;11789;53.482;9.862;2024-03-23T06:31:43;15.50;6.75;4.00
23240;PMS7003;11789;53.482;9.862;2024-03-23T06:34:08;6.25;4.25;2.25
23240;PMS7003;11789;53.482;9.862;2024-03-23T06:36:34;5.25;4.75;2.50
23240;PMS7003;11789;53.482;9.862;2024-03-23T06:38:59;5.50;5.00;3.00
23240;PMS7003;11789;53.482;9.862;2024-03-23T06:41:25;7.25;5.50;3.00
23240;PMS7003;11789;53.482;9.862;2024-03-23T06:43:51;7.75;5.75;3.00
23240;PMS7003;11789;53.482;9.862;2024-03-23T06:46:16;4.00;3.75;2.00
23240;PMS7003;11789;53.482;9.862;2024-03-23T06:48:42;9.25;5.75;3.00
23240;PMS7003;11789;53.482;9.862;2024-03-23T06:51:10;9.00;5.25;3.75
23240;PMS7003;11789;53.482;9.862;2024-03-23T06:53:35;6.25;5.00;3.25
23240;PMS7003;11789;53.482;9.862;2024-03-23T06:56:00;3.25;3.25;1.75
23240;PMS7003;11789;53.482;9.862;2024-03-23T06:58:26;4.00;4.00;3.00
23240;PMS7003;11789;53.482;9.862;2024-03-23T07:00:51;11.50;5.00;3.00
23240;PMS7003;11789;53.482;9.862;2024-03-23T07:03:17;6.50;5.00;3.00
23240;PMS7003;11789;53.482;9.862;2024-03-23T07:05:42;7.25;4.50;3.00
23240;PMS7003;11789;53.482;9.862;2024-03-23T07:08:08;7.25;4.00;3.00
23240;PMS7003;11789;53.482;9.862;2024-03-23T07:10:34;6.25;4.25;2.00
23240;PMS7003;11789;53.482;9.862;2024-03-23T07:13:00;10.50;5.25;3.00
23240;PMS7003;11789;53.482;9.862;2024-03-23T07:15:26;7.00;4.00;2.25
23240;PMS7003;11789;53.482;9.862;2024-03-23T07:17:51;6.50;4.75;3.00
23240;PMS7003;11789;53.482;9.862;2024-03-23T07:20:17;9.75;6.25;3.00
23240;PMS7003;11789;53.482;9.862;2024-03-23T07:22:42;10.00;5.00;2.00
23240;PMS7003;11789;53.482;9.862;2024-03-23T07:25:10;4.50;4.50;3.00
23240;PMS7003;11789;53.482;9.862;2024-03-23T07:27:35;12.75;6.25;3.00
23240;PMS7003;11789;53.482;9.862;2024-03-23T07:30:01;5.75;5.00;2.00
23240;PMS7003;11789;53.482;9.862;2024-03-23T07:32:27;5.00;4.50;3.00
23240;PMS7003;11789;53.482;9.862;2024-03-23T07:34:52;4.25;4.25;3.00
23240;PMS7003;11789;53.482;9.862;2024-03-23T07:37:18;8.75;6.25;4.00
23240;PMS7003;11789;53.482;9.862;2024-03-23T07:39:43;5.25;4.25;3.00
23240;PMS7003;11789;53.482;9.862;2024-03-23T07:42:09;7.75;6.00;3.00
23240;PMS7003;11789;53.482;9.862;2024-03-23T07:44:34;6.25;6.00;3.00
23240;PMS7003;11789;53.482;9.862;2024-03-23T07:47:03;7.50;5.00;3.00
23240;PMS7003;11789;53.482;9.862;2024-03-23T07:49:28;8.25;5.50;3.00
23240;PMS7003;11789;53.482;9.862;2024-03-23T07:51:54;7.00;4.75;2.25
23240;PMS7003;11789;53.482;9.862;2024-03-23T07:54:19;10.00;5.00;3.00
23240;PMS7003;11789;53.482;9.862;2024-03-23T07:56:45;13.25;5.25;2.50
23240;PMS7003;11789;53.482;9.862;2024-03-23T07:59:10;10.00;5.00;3.00
23240;PMS7003;11789;53.482;9.862;2024-03-23T08:01:36;8.25;6.00;3.00
23240;PMS7003;11789;53.482;9.862;2024-03-23T08:04:01;7.25;7.00;4.50
23240;PMS7003;11789;53.482;9.862;2024-03-23T08:06:27;9.00;6.75;3.00
23240;PMS7003;11789;53.482;9.862;2024-03-23T08:08:54;11.50;7.75;4.00
23240;PMS7003;11789;53.482;9.862;2024-03-23T08:11:27;10.25;6.75;3.75
23240;PMS7003;11789;53.482;9.862;2024-03-23T08:13:52;8.25;6.00;3.00
23240;PMS7003;11789;53.482;9.862;2024-03-23T08:16:18;9.25;5.00;3.00
23240;PMS7003;11789;53.482;9.862;2024-03-23T08:18:44;4.50;4.50;2.25
23240;PMS7003;11789;53.482;9.862;2024-03-23T08:21:09;7.25;5.00;3.00
23240;PMS7003;11789;53.482;9.862;2024-03-23T08:23:35;7.25;4.00;3.00
23240;PMS7003;11789;53.482;9.862;2024-03-23T08:26:07;6.25;4.00;3.00
23240;PMS7003;11789;53.482;9.862;2024-03-23T08:28:34;7.25;4.25;3.00
23240;PMS7003;11789;53.482;9.862;2024-03-23T08:31:01;6.75;4.25;3.00
23240;PMS7003;11789;53.482;9.862;2024-03-23T08:33:28;8.50;6.25;3.25
23240;PMS7003;11789;53.482;9.862;2024-03-23T08:35:54;10.25;4.25;2.00
23240;PMS7003;11789;53.482;9.862;2024-03-23T08:38:21;4.25;4.00;3.00
23240;PMS7003;11789;53.482;9.862;2024-03-23T08:40:47;7.25;3.00;2.00
23240;PMS7003;11789;53.482;9.862;2024-03-23T08:43:12;7.75;4.00;2.50
23240;PMS7003;11789;53.482;9.862;2024-03-23T08:45:37;7.75;4.00;1.50
23240;PMS7003;11789;53.482;9.862;2024-03-23T08:48:03;7.50;5.00;3.00
23240;PMS7003;11789;53.482;9.862;2024-03-23T08:50:29;5.00;5.00;3.00
23240;PMS7003;11789;53.482;9.862;2024-03-23T08:52:54;5.00;5.00;2.00
23240;PMS7003;11789;53.482;9.862;2024-03-23T08:55:19;6.50;4.00;3.00
23240;PMS7003;11789;53.482;9.862;2024-03-23T08:57:45;9.25;4.00;2.75
23240;PMS7003;11789;53.482;9.862;2024-03-23T09:00:10;5.00;4.00;3.00
23240;PMS7003;11789;53.482;9.862;2024-03-23T09:02:36;4.50;4.50;3.00
23240;PMS7003;11789;53.482;9.862;2024-03-23T09:05:02;5.25;4.00;3.00
23240;PMS7003;11789;53.482;9.862;2024-03-23T09:07:29;6.00;3.50;3.00
23240;PMS7003;11789;53.482;9.862;2024-03-23T09:09:55;8.25;4.75;3.75
23240;PMS7003;11789;53.482;9.862;2024-03-23T09:12:21;4.50;4.50;3.00
23240;PMS7003;11789;53.482;9.862;2024-03-23T09:14:46;5.00;4.00;1.50
23240;PMS7003;11789;53.482;9.862;2024-03-23T09:17:12;3.75;3.75;2.50
23240;PMS7003;11789;53.482;9.862;2024-03-23T09:19:38;5.50;4.25;3.00
23240;PMS7003;11789;53.482;9.862;2024-03-23T09:22:04;10.75;3.25;2.25
23240;PMS7003;11789;53.482;9.862;2024-03-23T09:24:30;5.75;4.50;2.50
23240;PMS7003;11789;53.482;9.862;2024-03-23T09:26:57;6.00;3.00;3.00
23240;PMS7003;11789;53.482;9.862;2024-03-23T09:29:22;5.50;4.25;3.00
23240;PMS7003;11789;53.482;9.862;2024-03-23T09:31:48;6.25;6.25;3.00
23240;PMS7003;11789;53.482;9.862;2024-03-23T09:34:13;3.25;3.25;2.50
23240;PMS7003;11789;53.482;9.862;2024-03-23T09:36:39;6.50;3.25;2.00
23240;PMS7003;11789;53.482;9.862;2024-03-23T09:39:04;3.00;3.00;2.00
23240;PMS7003;11789;53.482;9.862;2024-03-23T09:41:31;7.25;5.00;2.75
23240;PMS7003;11789;53.482;9.862;2024-03-23T09:43:57;4.00;4.00;2.50
23240;PMS7003;11789;53.482;9.862;2024-03-23T09:46:22;5.00;3.00;2.00
23240;PMS7003;11789;53.482;9.862;2024-03-23T09:48:48;3.00;3.00;1.00
23240;PMS7003;11789;53.482;9.862;2024-03-23T09:51:14;8.75;4.25;2.75
23240;PMS7003;11789;53.482;9.862;2024-03-23T09:53:39;3.50;3.00;2.00
23240;PMS7003;11789;53.482;9.862;2024-03-23T09:56:05;5.50;3.00;2.00
23240;PMS7003;11789;53.482;9.862;2024-03-23T09:58:30;2.25;2.25;1.00
23240;PMS7003;11789;53.482;9.862;2024-03-23T10:00:57;4.25;3.00;2.50
23240;PMS7003;11789;53.482;9.862;2024-03-23T10:03:23;5.00;2.00;1.25
23240;PMS7003;11789;53.482;9.862;2024-03-23T10:05:59;2.25;2.25;1.75
23240;PMS7003;11789;53.482;9.862;2024-03-23T10:08:26;3.75;2.75;2.00
23240;PMS7003;11789;53.482;9.862;2024-03-23T10:10:54;4.00;2.75;1.75
23240;PMS7003;11789;53.482;9.862;2024-03-23T10:13:26;2.75;2.75;2.00
23240;PMS7003;11789;53.482;9.862;2024-03-23T10:15:54;3.00;3.00;2.00
23240;PMS7003;11789;53.482;9.862;2024-03-23T10:18:24;4.25;3.00;2.00
23240;PMS7003;11789;53.482;9.862;2024-03-23T10:23:35;2.25;2.00;1.25
23240;PMS7003;11789;53.482;9.862;2024-03-23T10:26:12;5.50;3.00;1.50
23240;PMS7003;11789;53.482;9.862;2024-03-23T10:28:54;3.50;2.00;1.25
23240;PMS7003;11789;53.482;9.862;2024-03-23T10:31:32;7.00;2.00;1.00
23240;PMS7003;11789;53.482;9.862;2024-03-23T10:33:58;3.75;1.00;1.00
23240;PMS7003;11789;53.482;9.862;2024-03-23T10:36:25;5.00;2.00;1.25
23240;PMS7003;11789;53.482;9.862;2024-03-23T10:38:51;1.00;1.00;1.00
23240;PMS7003;11789;53.482;9.862;2024-03-23T10:41:18;4.00;3.00;2.00
23240;PMS7003;11789;53.482;9.862;2024-03-23T10:43:47;4.75;2.00;1.00
23240;PMS7003;11789;53.482;9.862;2024-03-23T10:46:13;3.00;1.75;1.00
23240;PMS7003;11789;53.482;9.862;2024-03-23T10:48:39;1.25;1.25;1.00
23240;PMS7003;11789;53.482;9.862;2024-03-23T10:51:08;1.75;1.00;1.00
23240;PMS7003;11789;53.482;9.862;2024-03-23T10:53:35;2.50;1.00;1.00
23240;PMS7003;11789;53.482;9.862;2024-03-23T10:56:02;0.75;0.75;0.75
23240;PMS7003;11789;53.482;9.862;2024-03-23T10:58:47;1.75;1.00;0.25
23240;PMS7003;11789;53.482;9.862;2024-03-23T11:01:14;2.50;1.00;1.00
23240;PMS7003;11789;53.482;9.862;2024-03-23T11:03:44;1.75;1.00;1.00
23240;PMS7003;11789;53.482;9.862;2024-03-23T11:06:11;3.25;1.75;1.00
23240;PMS7003;11789;53.482;9.862;2024-03-23T11:09:03;5.00;1.50;1.00
23240;PMS7003;11789;53.482;9.862;2024-03-23T11:11:28;3.00;2.00;1.00
23240;PMS7003;11789;53.482;9.862;2024-03-23T11:13:56;2.50;2.00;1.00
23240;PMS7003;11789;53.482;9.862;2024-03-23T11:16:26;1.50;1.50;1.00
23240;PMS7003;11789;53.482;9.862;2024-03-23T11:18:54;1.00;1.00;1.00
23240;PMS7003;11789;53.482;9.862;2024-03-23T11:21:58;3.00;2.00;0.25
23240;PMS7003;11789;53.482;9.862;2024-03-23T11:24:24;3.00;1.00;1.00
23240;PMS7003;11789;53.482;9.862;2024-03-23T11:26:50;2.00;2.00;1.00
23240;PMS7003;11789;53.482;9.862;2024-03-23T11:29:16;2.75;2.00;1.75
23240;PMS7003;11789;53.482;9.862;2024-03-23T11:31:52;2.00;2.00;2.00
23240;PMS7003;11789;53.482;9.862;2024-03-23T11:34:21;2.00;2.00;1.00
23240;PMS7003;11789;53.482;9.862;2024-03-23T11:36:47;4.25;2.00;1.00
23240;PMS7003;11789;53.482;9.862;2024-03-23T11:39:20;7.00;3.00;2.00
23240;PMS7003;11789;53.482;9.862;2024-03-23T11:41:49;1.25;1.25;1.00
23240;PMS7003;11789;53.482;9.862;2024-03-23T11:44:23;1.00;1.00;1.00
23240;PMS7003;11789;53.482;9.862;2024-03-23T11:46:51;3.00;1.00;1.00
23240;PMS7003;11789;53.482;9.862;2024-03-23T11:49:23;2.75;2.00;1.50
23240;PMS7003;11789;53.482;9.862;2024-03-23T11:51:49;1.00;1.00;1.00
23240;PMS7003;11789;53.482;9.862;2024-03-23T11:54:16;2.25;2.25;2.00
23240;PMS7003;11789;53.482;9.862;2024-03-23T11:56:53;1.75;1.75;1.00
23240;PMS7003;11789;53.482;9.862;2024-03-23T11:59:30;5.00;2.00;1.00
23240;PMS7003;11789;53.482;9.862;2024-03-23T12:02:09;5.25;2.50;1.50
23240;PMS7003;11789;53.482;9.862;2024-03-23T12:04:36;4.00;2.00;1.75
23240;PMS7003;11789;53.482;9.862;2024-03-23T12:07:18;3.25;2.00;1.50
23240;PMS7003;11789;53.482;9.862;2024-03-23T12:09:45;5.00;3.25;2.00
23240;PMS7003;11789;53.482;9.862;2024-03-23T12:12:18;2.25;2.25;1.50
23240;PMS7003;11789;53.482;9.862;2024-03-23T12:17:34;2.00;2.00;1.75
23240;PMS7003;11789;53.482;9.862;2024-03-23T12:20:00;0.75;0.75;0.75
23240;PMS7003;11789;53.482;9.862;2024-03-23T12:22:26;0.75;0.75;0.25
23240;PMS7003;11789;53.482;9.862;2024-03-23T12:24:52;0.50;0.50;0.00
23240;PMS7003;11789;53.482;9.862;2024-03-23T12:27:18;2.00;1.00;1.00
23240;PMS7003;11789;53.482;9.862;2024-03-23T12:29:43;1.00;1.00;1.00
23240;PMS7003;11789;53.482;9.862;2024-03-23T12:32:11;3.00;1.00;0.50
23240;PMS7003;11789;53.482;9.862;2024-03-23T12:34:37;1.25;1.25;1.00
23240;PMS7003;11789;53.482;9.862;2024-03-23T12:37:02;1.00;1.00;0.00
23240;PMS7003;11789;53.482;9.862;2024-03-23T12:39:28;1.25;1.00;0.75
23240;PMS7003;11789;53.482;9.862;2024-03-23T12:41:53;0.00;0.00;0.00
23240;PMS7003;11789;53.482;9.862;2024-03-23T12:44:19;0.25;0.25;0.00
23240;PMS7003;11789;53.482;9.862;2024-03-23T12:46:45;0.00;0.00;0.00
23240;PMS7003;11789;53.482;9.862;2024-03-23T12:49:10;0.00;0.00;0.00
23240;PMS7003;11789;53.482;9.862;2024-03-23T12:51:36;2.00;0.00;0.00
23240;PMS7003;11789;53.482;9.862;2024-03-23T12:54:05;1.00;0.00;0.00
23240;PMS7003;11789;53.482;9.862;2024-03-23T12:56:31;1.00;0.25;0.00
23240;PMS7003;11789;53.482;9.862;2024-03-23T12:58:56;0.00;0.00;0.00
23240;PMS7003;11789;53.482;9.862;2024-03-23T13:01:25;0.00;0.00;0.00
23240;PMS7003;11789;53.482;9.862;2024-03-23T13:03:51;1.00;1.00;0.00
23240;PMS7003;11789;53.482;9.862;2024-03-23T13:06:17;0.00;0.00;0.00
23240;PMS7003;11789;53.482;9.862;2024-03-23T13:08:44;1.00;1.00;0.00
23240;PMS7003;11789;53.482;9.862;2024-03-23T13:11:10;0.25;0.25;0.00
23240;PMS7003;11789;53.482;9.862;2024-03-23T13:13:37;1.00;1.00;1.00
23240;PMS7003;11789;53.482;9.862;2024-03-23T13:16:03;0.50;0.50;0.00
23240;PMS7003;11789;53.482;9.862;2024-03-23T13:18:30;0.00;0.00;0.00
23240;PMS7003;11789;53.482;9.862;2024-03-23T13:20:56;1.75;1.75;1.00
23240;PMS7003;11789;53.482;9.862;2024-03-23T13:23:21;0.50;0.50;0.25
23240;PMS7003;11789;53.482;9.862;2024-03-23T13:25:54;1.00;1.00;1.00
23240;PMS7003;11789;53.482;9.862;2024-03-23T13:28:21;2.00;1.00;0.25
23240;PMS7003;11789;53.482;9.862;2024-03-23T13:30:53;2.00;1.00;1.00
23240;PMS7003;11789;53.482;9.862;2024-03-23T13:33:20;0.00;0.00;0.00
23240;PMS7003;11789;53.482;9.862;2024-03-23T13:35:53;0.75;0.75;0.25
23240;PMS7003;11789;53.482;9.862;2024-03-23T13:38:19;2.00;0.50;0.50
23240;PMS7003;11789;53.482;9.862;2024-03-23T13:40:52;2.00;0.00;0.00
23240;PMS7003;11789;53.482;9.862;2024-03-23T13:43:22;1.00;1.00;1.00
23240;PMS7003;11789;53.482;9.862;2024-03-23T13:45:49;0.00;0.00;0.00
23240;PMS7003;11789;53.482;9.862;2024-03-23T13:48:18;0.00;0.00;0.00
23240;PMS7003;11789;53.482;9.862;2024-03-23T13:50:44;0.00;0.00;0.00
23240;PMS7003;11789;53.482;9.862;2024-03-23T13:53:10;0.00;0.00;0.00
23240;PMS7003;11789;53.482;9.862;2024-03-23T13:55:35;0.75;0.75;0.00
23240;PMS7003;11789;53.482;9.862;2024-03-23T13:58:01;1.50;0.00;0.00
23240;PMS7003;11789;53.482;9.862;2024-03-23T14:00:27;0.50;0.00;0.00
23240;PMS7003;11789;53.482;9.862;2024-03-23T14:02:52;0.00;0.00;0.00
23240;PMS7003;11789;53.482;9.862;2024-03-23T14:05:17;1.00;0.00;0.00
23240;PMS7003;11789;53.482;9.862;2024-03-23T14:07:43;0.00;0.00;0.00
23240;PMS7003;11789;53.482;9.862;2024-03-23T14:10:08;0.00;0.00;0.00
23240;PMS7003;11789;53.482;9.862;2024-03-23T14:12:36;1.00;1.00;1.00
23240;PMS7003;11789;53.482;9.862;2024-03-23T14:15:05;0.25;0.00;0.00
23240;PMS7003;11789;53.482;9.862;2024-03-23T14:17:30;0.00;0.00;0.00
23240;PMS7003;11789;53.482;9.862;2024-03-23T14:19:56;1.50;0.75;0.00
23240;PMS7003;11789;53.482;9.862;2024-03-23T14:22:25;0.00;0.00;0.00
23240;PMS7003;11789;53.482;9.862;2024-03-23T14:24:52;1.50;0.00;0.00
23240;PMS7003;11789;53.482;9.862;2024-03-23T14:27:17;0.75;0.00;0.00
23240;PMS7003;11789;53.482;9.862;2024-03-23T14:29:45;1.75;0.00;0.00
23240;PMS7003;11789;53.482;9.862;2024-03-23T14:32:11;0.25;0.25;0.00
23240;PMS7003;11789;53.482;9.862;2024-03-23T14:34:37;2.00;0.25;0.00
23240;PMS7003;11789;53.482;9.862;2024-03-23T14:37:02;1.50;0.25;0.25
23240;PMS7003;11789;53.482;9.862;2024-03-23T14:39:28;0.00;0.00;0.00
23240;PMS7003;11789;53.482;9.862;2024-03-23T14:41:55;1.00;1.00;1.00
23240;PMS7003;11789;53.482;9.862;2024-03-23T14:44:21;1.00;1.00;0.50
23240;PMS7003;11789;53.482;9.862;2024-03-23T14:46:47;0.50;0.50;0.00
23240;PMS7003;11789;53.482;9.862;2024-03-23T14:49:16;1.00;1.00;0.75
23240;PMS7003;11789;53.482;9.862;2024-03-23T14:51:44;1.75;0.75;0.00
23240;PMS7003;11789;53.482;9.862;2024-03-23T14:54:11;1.00;0.50;0.00
23240;PMS7003;11789;53.482;9.862;2024-03-23T14:56:36;2.00;1.00;1.00
23240;PMS7003;11789;53.482;9.862;2024-03-23T14:59:02;2.75;1.00;1.00
23240;PMS7003;11789;53.482;9.862;2024-03-23T15:01:28;1.50;1.50;0.50
23240;PMS7003;11789;53.482;9.862;2024-03-23T15:03:53;2.00;1.00;0.00
23240;PMS7003;11789;53.482;9.862;2024-03-23T15:06:19;0.00;0.00;0.00
23240;PMS7003;11789;53.482;9.862;2024-03-23T15:08:44;2.50;1.00;0.25
23240;PMS7003;11789;53.482;9.862;2024-03-23T15:11:10;2.00;0.25;0.00
23240;PMS7003;11789;53.482;9.862;2024-03-23T15:13:36;1.75;0.00;0.00
23240;PMS7003;11789;53.482;9.862;2024-03-23T15:16:03;2.00;0.00;0.00